Terminal Aerodrome Forecast
Issued by NWS

Home | Current Version | Previous Version | Text Only | Print | Product List | Glossary On
Versions: 1 2 3 4 5 6 7 8 9 10 11 12 13 14
000
FTUS46 KOTX 120523 CCA
TAFCOE
TAF COR
KCOE 120523Z 1206/1306 04006KT 5SM BR OVC005
     FM121800 03007KT P6SM OVC010
     FM122100 03006KT P6SM SCT010
     FM130530 03006KT P6SM BKN010=

USA.gov is the U.S. government's official web portal to all federal, state and local government web resources and services.